createdAt,value
2022-12-01T00:01:38.765Z,0.88
2022-12-01T00:05:40.198Z,0.72
2022-12-01T00:09:42.923Z,0.74
2022-12-01T00:13:44.301Z,0.61
2022-12-01T00:17:45.702Z,0.48
2022-12-01T00:21:47.075Z,0.58
2022-12-01T00:25:49.816Z,0.51
2022-12-01T00:29:51.263Z,0.41
2022-12-01T00:33:52.728Z,0.37
2022-12-01T00:37:54.319Z,0.34
2022-12-01T00:41:57.047Z,0.18
2022-12-01T00:45:58.487Z,0.57
2022-12-01T00:49:59.914Z,0.35
2022-12-01T00:54:01.357Z,0.44
2022-12-01T00:58:04.102Z,0.24
2022-12-01T01:02:06.203Z,0.13
2022-12-01T01:06:08.721Z,0.22
2022-12-01T01:10:10.759Z,0.17
2022-12-01T01:14:13.637Z,0.16
2022-12-01T01:18:15.000Z,0.33
2022-12-01T01:22:16.402Z,0.39
2022-12-01T01:26:18.560Z,0.23
2022-12-01T01:30:21.384Z,0.20
2022-12-01T01:34:22.825Z,0.19
2022-12-01T01:38:24.230Z,0.27
2022-12-01T01:42:25.590Z,0.33
2022-12-01T01:46:29.359Z,0.21
2022-12-01T01:50:30.877Z,0.18
2022-12-01T01:54:35.892Z,0.35
2022-12-01T01:58:38.436Z,0.37
2022-12-01T02:02:42.236Z,0.50
2022-12-01T02:06:43.635Z,0.48
2022-12-01T02:10:52.385Z,0.57
2022-12-01T02:15:02.243Z,0.39
2022-12-01T02:19:11.374Z,0.43
2022-12-01T02:23:24.530Z,0.47
2022-12-01T02:27:36.771Z,0.35
2022-12-01T02:31:41.557Z,0.24
2022-12-01T02:35:46.205Z,0.38
2022-12-01T02:39:51.316Z,0.37
2022-12-01T02:43:55.610Z,0.26
2022-12-01T02:48:00.550Z,0.18
2022-12-01T02:52:03.904Z,0.21
2022-12-01T02:56:06.487Z,0.11
2022-12-01T03:00:08.315Z,0.10
2022-12-01T03:04:19.911Z,0.17
2022-12-01T03:08:26.643Z,0.32
2022-12-01T03:12:30.172Z,0.49
2022-12-01T03:16:35.401Z,0.54
2022-12-01T03:20:41.743Z,0.51
2022-12-01T03:24:46.237Z,0.75
2022-12-01T03:28:50.332Z,0.76
2022-12-01T03:32:55.759Z,0.62
2022-12-01T03:37:01.025Z,0.76
2022-12-01T03:41:05.024Z,0.67
2022-12-01T03:45:07.660Z,0.69
2022-12-01T03:49:09.346Z,0.99
2022-12-01T03:53:14.464Z,0.98
2022-12-01T03:57:18.182Z,0.88
2022-12-01T04:01:19.944Z,0.74
2022-12-01T04:05:25.326Z,0.77
2022-12-01T04:09:28.356Z,0.74
2022-12-01T04:13:29.741Z,0.63
2022-12-01T04:17:31.113Z,0.51
2022-12-01T04:21:32.493Z,0.64
2022-12-01T04:25:35.233Z,0.38
2022-12-01T04:29:36.679Z,0.37
2022-12-01T04:33:38.046Z,0.16
2022-12-01T04:37:40.634Z,0.14
2022-12-01T04:41:43.367Z,0.17
2022-12-01T04:45:44.828Z,0.20
2022-12-01T04:49:46.338Z,0.26
2022-12-01T04:53:47.880Z,0.12
2022-12-01T04:57:50.649Z,0.07
2022-12-01T05:01:52.076Z,0.13
2022-12-01T05:06:00.284Z,0.05
2022-12-01T05:10:01.668Z,0.09
2022-12-01T05:14:04.417Z,-0.02
2022-12-01T05:18:05.778Z,0.02
2022-12-01T05:22:07.185Z,-0.13
2022-12-01T05:26:08.867Z,-0.18
2022-12-01T05:30:12.172Z,-0.25
2022-12-01T05:34:13.578Z,-0.35
2022-12-01T05:38:15.416Z,-0.34
2022-12-01T05:42:16.804Z,-0.30
2022-12-01T05:46:19.599Z,-0.27
2022-12-01T05:50:21.092Z,-0.29
2022-12-01T05:54:22.489Z,-0.26
2022-12-01T05:58:23.880Z,-0.38
2022-12-01T06:02:26.693Z,-0.36
2022-12-01T06:06:28.112Z,-0.27
2022-12-01T06:10:29.496Z,-0.17
2022-12-01T06:14:30.858Z,-0.40
2022-12-01T06:18:34.812Z,-0.44
2022-12-01T06:22:36.284Z,-0.51
2022-12-01T06:26:37.647Z,-0.51
2022-12-01T06:30:39.034Z,-0.59
2022-12-01T06:34:41.776Z,-0.70
2022-12-01T06:38:43.176Z,-0.62
2022-12-01T06:42:44.550Z,-0.66
2022-12-01T06:46:45.929Z,-0.62
2022-12-01T06:50:48.677Z,-0.70
2022-12-01T06:54:50.004Z,-0.64
2022-12-01T06:58:52.007Z,-0.69
2022-12-01T07:02:53.742Z,-0.75
2022-12-01T07:06:56.564Z,-0.68
2022-12-01T07:10:58.556Z,-0.63
2022-12-01T07:14:59.915Z,-0.56
2022-12-01T07:19:01.282Z,-0.53
2022-12-01T07:23:04.014Z,-0.48
2022-12-01T07:27:05.374Z,-0.53
2022-12-01T07:31:07.635Z,-0.48
2022-12-01T07:35:09.255Z,-0.27
2022-12-01T07:39:12.015Z,-0.14
2022-12-01T07:43:13.381Z,-0.13
2022-12-01T07:47:14.743Z,0.06
2022-12-01T07:51:16.297Z,0.25
2022-12-01T07:55:19.045Z,0.15
2022-12-01T07:59:20.437Z,0.31
2022-12-01T08:03:21.875Z,0.45
2022-12-01T08:07:26.089Z,0.64
2022-12-01T08:11:32.415Z,0.77
2022-12-01T08:15:33.814Z,0.93
2022-12-01T08:19:35.212Z,1.16
2022-12-01T08:23:36.622Z,1.13
2022-12-01T08:27:39.382Z,1.17
2022-12-01T08:31:40.776Z,1.19
2022-12-01T08:35:42.175Z,1.45
2022-12-01T08:39:43.554Z,1.40
2022-12-01T08:44:01.917Z,1.66
2022-12-01T08:48:03.551Z,1.56
2022-12-01T08:52:04.925Z,1.80
2022-12-01T08:56:08.121Z,1.85
2022-12-01T09:00:11.809Z,1.98
2022-12-01T09:04:13.184Z,2.07
2022-12-01T09:08:14.617Z,2.20
2022-12-01T09:12:16.013Z,2.23
2022-12-01T09:16:18.834Z,2.33
2022-12-01T09:20:20.518Z,2.39
2022-12-01T09:24:21.911Z,2.42
2022-12-01T09:28:23.301Z,2.48
2022-12-01T09:32:26.205Z,2.61
2022-12-01T09:36:28.089Z,2.77
2022-12-01T09:40:31.465Z,2.91
2022-12-01T09:44:36.599Z,2.98
2022-12-01T09:48:41.572Z,3.13
2022-12-01T09:52:45.252Z,3.07
2022-12-01T09:56:47.470Z,3.22
2022-12-01T10:00:49.916Z,3.08
2022-12-01T10:04:54.823Z,3.03
2022-12-01T10:09:00.417Z,3.17
2022-12-01T10:13:01.791Z,3.38
2022-12-01T10:17:06.258Z,3.27
2022-12-01T10:21:14.359Z,3.47
2022-12-01T10:25:19.261Z,3.55
2022-12-01T10:29:26.725Z,3.66
2022-12-01T10:33:33.919Z,3.69
2022-12-01T10:37:37.662Z,3.77
2022-12-01T10:41:39.449Z,3.90
2022-12-01T10:45:43.320Z,3.92
2022-12-01T10:49:44.734Z,4.36
2022-12-01T10:53:47.552Z,4.28
2022-12-01T10:57:49.469Z,4.29
2022-12-01T11:01:50.942Z,4.33
2022-12-01T11:05:53.328Z,4.50
2022-12-01T11:10:13.772Z,4.48
2022-12-01T11:14:17.550Z,4.38
2022-12-01T11:18:21.903Z,4.65
2022-12-01T11:22:24.319Z,4.87
2022-12-01T11:26:28.419Z,4.99
2022-12-01T11:30:31.493Z,5.13
2022-12-01T11:34:33.325Z,5.23
2022-12-01T11:38:34.796Z,5.09
2022-12-01T11:42:38.817Z,5.00
2022-12-01T11:46:50.213Z,5.14
2022-12-01T11:51:01.683Z,5.04
2022-12-01T11:55:19.040Z,5.01
2022-12-01T11:59:23.348Z,4.99
2022-12-01T12:03:29.330Z,4.97
2022-12-01T12:07:37.310Z,5.00
2022-12-01T12:11:42.657Z,5.17
2022-12-01T12:15:51.010Z,5.46
2022-12-01T12:20:10.262Z,5.40
2022-12-01T12:24:29.623Z,5.31
2022-12-01T12:28:37.840Z,5.58
2022-12-01T12:32:49.391Z,5.48
2022-12-01T12:36:56.852Z,5.66
2022-12-01T12:41:05.478Z,5.58
2022-12-01T12:45:15.017Z,5.42
2022-12-01T12:49:24.049Z,5.50
2022-12-01T12:53:40.914Z,5.47
2022-12-01T12:57:45.665Z,5.41
2022-12-01T13:01:55.292Z,5.54
2022-12-01T13:06:00.496Z,5.51
2022-12-01T13:10:06.933Z,5.61
2022-12-01T13:14:13.120Z,5.66
2022-12-01T13:18:20.025Z,5.68
2022-12-01T13:22:24.870Z,5.56
2022-12-01T13:26:26.322Z,5.61
2022-12-01T13:30:27.842Z,5.49
2022-12-01T13:34:32.600Z,5.37
2022-12-01T13:38:35.777Z,5.34
2022-12-01T13:42:37.560Z,5.28
2022-12-01T13:46:50.621Z,5.30
2022-12-01T13:51:00.733Z,5.34
2022-12-01T13:55:23.046Z,5.35
2022-12-01T13:59:38.388Z,5.21
2022-12-01T14:03:40.952Z,5.21
2022-12-01T14:07:43.209Z,5.20
2022-12-01T14:11:55.993Z,5.19
2022-12-01T14:15:58.799Z,5.08
2022-12-01T14:20:05.451Z,5.14
2022-12-01T14:24:07.172Z,5.11
2022-12-01T14:28:14.794Z,5.17
2022-12-01T14:32:20.611Z,5.30
2022-12-01T14:36:28.849Z,5.18
2022-12-01T14:40:30.428Z,5.18
2022-12-01T14:44:38.901Z,5.34
2022-12-01T14:48:42.097Z,5.34
2022-12-01T14:52:45.987Z,5.09
2022-12-01T14:56:48.068Z,4.95
2022-12-01T15:00:56.764Z,5.09
2022-12-01T15:05:09.653Z,4.97
2022-12-01T15:13:43.786Z,4.81
2022-12-01T15:17:47.025Z,4.66
2022-12-01T15:21:48.458Z,4.57
2022-12-01T15:25:49.833Z,4.55
2022-12-01T15:29:52.055Z,4.56
2022-12-01T15:33:55.986Z,4.43
2022-12-01T15:37:57.530Z,4.43
2022-12-01T15:41:59.510Z,4.42
2022-12-01T15:46:11.144Z,4.42
2022-12-01T15:50:27.693Z,4.38
2022-12-01T15:54:29.066Z,4.40
2022-12-01T15:58:31.791Z,4.48
2022-12-01T16:02:33.460Z,4.49
2022-12-01T16:06:37.374Z,4.55
2022-12-01T16:10:38.738Z,4.55
2022-12-01T16:14:48.953Z,4.46
2022-12-01T16:18:55.021Z,4.38
2022-12-01T16:22:58.273Z,4.42
2022-12-01T16:27:01.195Z,4.40
2022-12-01T16:31:05.310Z,4.36
2022-12-01T16:35:21.425Z,4.35
2022-12-01T16:39:24.187Z,4.39
2022-12-01T16:43:26.315Z,4.34
2022-12-01T16:47:31.011Z,4.28
2022-12-01T16:51:54.412Z,4.29
2022-12-01T16:55:56.115Z,4.30
2022-12-01T16:59:57.493Z,4.33
2022-12-01T17:04:01.390Z,4.37
2022-12-01T17:08:06.233Z,4.38
2022-12-01T17:12:09.097Z,4.28
2022-12-01T17:16:15.213Z,4.31
2022-12-01T17:20:19.752Z,4.29
2022-12-01T17:24:21.140Z,4.34
2022-12-01T17:28:23.889Z,4.28
2022-12-01T17:32:25.265Z,4.29
2022-12-01T17:36:26.763Z,4.35
2022-12-01T17:40:28.161Z,4.28
2022-12-01T17:44:31.003Z,4.16
2022-12-01T17:48:34.729Z,4.29
2022-12-01T17:52:36.123Z,4.18
2022-12-01T17:56:37.709Z,4.12
2022-12-01T18:00:40.436Z,4.27
2022-12-01T18:04:41.983Z,4.17
2022-12-01T18:08:43.376Z,4.17
2022-12-01T18:12:44.741Z,4.17
2022-12-01T18:16:47.706Z,4.19
2022-12-01T18:20:49.096Z,4.21
2022-12-01T18:24:50.627Z,4.13
2022-12-01T18:28:55.608Z,4.13
2022-12-01T18:32:58.333Z,4.10
2022-12-01T18:37:01.069Z,4.23
2022-12-01T18:41:02.522Z,4.27
2022-12-01T18:45:04.007Z,4.26
2022-12-01T18:49:06.736Z,4.20
2022-12-01T18:53:08.128Z,4.18
2022-12-01T18:57:09.592Z,4.21
2022-12-01T19:01:18.254Z,4.23
2022-12-01T19:05:21.027Z,4.20
2022-12-01T19:09:24.221Z,4.18
2022-12-01T19:13:25.560Z,4.17
2022-12-01T19:17:27.065Z,4.26
2022-12-01T19:21:29.834Z,4.17
2022-12-01T19:25:31.204Z,4.20
2022-12-01T19:29:32.593Z,4.18
2022-12-01T19:33:34.116Z,4.17
2022-12-01T19:37:36.866Z,4.10
2022-12-01T19:41:38.224Z,4.02
2022-12-01T19:45:39.684Z,4.04
2022-12-01T19:49:42.233Z,4.08
2022-12-01T19:53:44.960Z,4.13
2022-12-01T19:57:49.639Z,4.02
2022-12-01T20:01:51.059Z,4.05
2022-12-01T20:05:52.544Z,4.13
2022-12-01T20:09:55.259Z,4.03
2022-12-01T20:13:56.670Z,4.15
2022-12-01T20:17:58.040Z,3.97
2022-12-01T20:21:59.410Z,3.98
2022-12-01T20:26:02.829Z,3.94
2022-12-01T20:30:04.694Z,3.94
2022-12-01T20:34:12.344Z,3.91
2022-12-01T20:38:13.720Z,3.99
2022-12-01T20:42:16.435Z,3.93
2022-12-01T20:46:18.051Z,4.02
2022-12-01T20:50:20.861Z,3.99
2022-12-01T20:54:30.297Z,4.08
2022-12-01T20:58:37.211Z,4.04
2022-12-01T21:02:39.245Z,4.00
2022-12-01T21:06:40.683Z,3.98
2022-12-01T21:10:43.295Z,3.95
2022-12-01T21:14:47.958Z,3.97
2022-12-01T21:18:50.913Z,3.80
2022-12-01T21:22:52.477Z,3.88
2022-12-01T21:26:56.544Z,3.96
2022-12-01T21:31:01.648Z,3.81
2022-12-01T21:35:08.077Z,3.86
2022-12-01T21:39:12.650Z,3.84
2022-12-01T21:43:17.183Z,3.86
2022-12-01T21:47:20.954Z,3.88
2022-12-01T21:51:23.442Z,3.83
2022-12-01T21:55:32.388Z,4.06
2022-12-01T21:59:33.724Z,4.03
2022-12-01T22:03:39.384Z,3.95
2022-12-01T22:07:40.887Z,3.95
2022-12-01T22:11:42.758Z,3.89
2022-12-01T22:15:44.176Z,3.92
2022-12-01T22:19:52.156Z,4.03
2022-12-01T22:23:59.107Z,3.95
2022-12-01T22:28:01.827Z,3.82
2022-12-01T22:32:25.567Z,3.81
2022-12-01T22:36:29.989Z,3.96
2022-12-01T22:40:36.875Z,3.89
2022-12-01T22:44:38.231Z,3.90
2022-12-01T22:48:40.887Z,3.92
2022-12-01T22:52:43.580Z,3.97
2022-12-01T22:56:46.249Z,3.91
2022-12-01T23:00:47.643Z,4.04
2022-12-01T23:04:50.248Z,4.11
2022-12-01T23:08:53.191Z,3.91
2022-12-01T23:12:57.032Z,4.04
2022-12-01T23:17:04.245Z,3.95
2022-12-01T23:21:05.664Z,3.96
2022-12-01T23:25:11.804Z,3.86
2022-12-01T23:29:13.167Z,3.89
2022-12-01T23:33:16.203Z,3.96
2022-12-01T23:37:26.303Z,3.91
2022-12-01T23:41:32.442Z,3.97
2022-12-01T23:45:33.799Z,3.73
2022-12-01T23:49:35.291Z,3.72
2022-12-01T23:53:38.983Z,3.82
2022-12-01T23:57:41.737Z,3.78
